Time;durP1;ratioP1;P1;durP2;ratioP2;P2;SDS_P1;SDS_P2;PMS_P1;PMS_P2;Temp;Humidity;BMP_temperature;BMP_pressure;BME280_temperature;BME280_humidity;BME280_pressure;Samples;Min_cycle;Max_cycle;Signal;HPM_P1;HPM_P2
2022/04/24 00:02:02;;;;;;;4.4;3.7;;;;;;;;;;;;;
2022/04/24 00:04:28;;;;;;;5.6;4;;;;;;;;;;;;;
2022/04/24 00:06:55;;;;;;;5;4;;;;;;;;;;;;;
2022/04/24 00:09:20;;;;;;;4.1;3.7;;;;;;;;;;;;;
2022/04/24 00:11:45;;;;;;;5;4.2;;;;;;;;;;;;;
2022/04/24 00:14:11;;;;;;;4.3;3.8;;;;;;;;;;;;;
2022/04/24 00:16:36;;;;;;;5.2;3.5;;;;;;;;;;;;;
2022/04/24 00:19:01;;;;;;;4.9;3.6;;;;;;;;;;;;;
2022/04/24 00:21:28;;;;;;;5.7;3.3;;;;;;;;;;;;;
2022/04/24 00:23:53;;;;;;;3.3;3;;;;;;;;;;;;;
2022/04/24 00:26:19;;;;;;;3.1;2.8;;;;;;;;;;;;;
2022/04/24 00:28:44;;;;;;;3.8;3.2;;;;;;;;;;;;;
2022/04/24 00:31:10;;;;;;;4.3;3.5;;;;;;;;;;;;;
2022/04/24 00:33:35;;;;;;;3.7;2.6;;;;;;;;;;;;;
2022/04/24 00:36:00;;;;;;;3;2.5;;;;;;;;;;;;;
2022/04/24 00:38:25;;;;;;;2.5;2.3;;;;;;;;;;;;;
2022/04/24 00:40:54;;;;;;;2.2;2;;;;;;;;;;;;;
2022/04/24 00:43:17;;;;;;;2.8;2.2;;;;;;;;;;;;;
2022/04/24 00:45:44;;;;;;;2.8;2.2;;;;;;;;;;;;;
2022/04/24 00:48:09;;;;;;;2.3;2.1;;;;;;;;;;;;;
2022/04/24 00:50:36;;;;;;;3.3;2.9;;;;;;;;;;;;;
2022/04/24 00:53:01;;;;;;;3.1;2.8;;;;;;;;;;;;;
2022/04/24 00:55:28;;;;;;;3.3;2.8;;;;;;;;;;;;;
2022/04/24 00:57:53;;;;;;;3.4;2.7;;;;;;;;;;;;;
2022/04/24 01:00:19;;;;;;;2.9;2.6;;;;;;;;;;;;;
2022/04/24 01:02:44;;;;;;;3;2.6;;;;;;;;;;;;;
2022/04/24 01:05:12;;;;;;;3.1;2.3;;;;;;;;;;;;;
2022/04/24 01:07:37;;;;;;;3.4;2.6;;;;;;;;;;;;;
2022/04/24 01:10:02;;;;;;;2.5;2.3;;;;;;;;;;;;;
2022/04/24 01:12:27;;;;;;;2;1.8;;;;;;;;;;;;;
2022/04/24 01:14:53;;;;;;;1.9;1.7;;;;;;;;;;;;;
2022/04/24 01:17:18;;;;;;;2.5;1.9;;;;;;;;;;;;;
2022/04/24 01:19:44;;;;;;;2.5;1.8;;;;;;;;;;;;;
2022/04/24 01:22:09;;;;;;;1.6;1.5;;;;;;;;;;;;;
2022/04/24 01:24:35;;;;;;;1.6;1.3;;;;;;;;;;;;;
2022/04/24 01:27:01;;;;;;;1.6;1.3;;;;;;;;;;;;;
2022/04/24 01:29:26;;;;;;;3;1.4;;;;;;;;;;;;;
2022/04/24 01:31:52;;;;;;;1.6;1.5;;;;;;;;;;;;;
2022/04/24 01:34:17;;;;;;;1.6;1.5;;;;;;;;;;;;;
2022/04/24 01:36:45;;;;;;;1.8;1.7;;;;;;;;;;;;;
2022/04/24 01:41:35;;;;;;;2.1;1.3;;;;;;;;;;;;;
2022/04/24 01:44:00;;;;;;;1.5;1.4;;;;;;;;;;;;;
2022/04/24 01:46:28;;;;;;;1.7;1.4;;;;;;;;;;;;;
2022/04/24 01:48:53;;;;;;;1.9;1.1;;;;;;;;;;;;;
2022/04/24 01:51:18;;;;;;;1.7;1.1;;;;;;;;;;;;;
2022/04/24 01:53:44;;;;;;;2.2;1.6;;;;;;;;;;;;;
2022/04/24 01:56:09;;;;;;;2.3;1.7;;;;;;;;;;;;;
2022/04/24 01:58:34;;;;;;;2;1.3;;;;;;;;;;;;;
2022/04/24 02:01:00;;;;;;;2;1.7;;;;;;;;;;;;;
2022/04/24 02:03:25;;;;;;;1.5;1.4;;;;;;;;;;;;;
2022/04/24 02:05:51;;;;;;;1.7;1.6;;;;;;;;;;;;;
2022/04/24 02:08:16;;;;;;;4.1;1.7;;;;;;;;;;;;;
2022/04/24 02:10:43;;;;;;;2.2;1.3;;;;;;;;;;;;;
2022/04/24 02:13:08;;;;;;;1.9;1.4;;;;;;;;;;;;;
2022/04/24 02:15:35;;;;;;;1.2;1.1;;;;;;;;;;;;;
2022/04/24 02:18:00;;;;;;;1.5;1.3;;;;;;;;;;;;;
2022/04/24 02:20:25;;;;;;;1.7;1.1;;;;;;;;;;;;;
2022/04/24 02:22:50;;;;;;;1.3;1.2;;;;;;;;;;;;;
2022/04/24 02:25:17;;;;;;;1.2;1;;;;;;;;;;;;;
2022/04/24 02:27:41;;;;;;;3.1;1.3;;;;;;;;;;;;;
2022/04/24 02:30:11;;;;;;;1.4;1.3;;;;;;;;;;;;;
2022/04/24 02:32:39;;;;;;;2.3;1.3;;;;;;;;;;;;;
2022/04/24 02:35:04;;;;;;;1.3;1.2;;;;;;;;;;;;;
2022/04/24 02:37:32;;;;;;;1.8;1.4;;;;;;;;;;;;;
2022/04/24 02:39:56;;;;;;;2.9;1.4;;;;;;;;;;;;;
2022/04/24 02:42:23;;;;;;;1.6;1.5;;;;;;;;;;;;;
2022/04/24 02:44:48;;;;;;;2.2;1.8;;;;;;;;;;;;;
2022/04/24 02:47:14;;;;;;;2.3;1.5;;;;;;;;;;;;;
2022/04/24 02:49:39;;;;;;;2.1;1.5;;;;;;;;;;;;;
2022/04/24 02:52:06;;;;;;;1.9;1.7;;;;;;;;;;;;;
2022/04/24 02:54:31;;;;;;;2.3;1.4;;;;;;;;;;;;;
2022/04/24 02:56:58;;;;;;;1.6;1.3;;;;;;;;;;;;;
2022/04/24 02:59:25;;;;;;;2;1.4;;;;;;;;;;;;;
2022/04/24 03:01:52;;;;;;;1.6;1.4;;;;;;;;;;;;;
2022/04/24 03:04:16;;;;;;;1.6;1.5;;;;;;;;;;;;;
2022/04/24 03:06:42;;;;;;;1.8;1.5;;;;;;;;;;;;;
2022/04/24 03:09:08;;;;;;;1.5;1.4;;;;;;;;;;;;;
2022/04/24 03:11:34;;;;;;;1.7;1.6;;;;;;;;;;;;;
2022/04/24 03:14:00;;;;;;;2.4;1.5;;;;;;;;;;;;;
2022/04/24 03:16:26;;;;;;;1.4;1;;;;;;;;;;;;;
2022/04/24 03:18:51;;;;;;;1.5;1.3;;;;;;;;;;;;;
2022/04/24 03:21:17;;;;;;;1.6;1.2;;;;;;;;;;;;;
2022/04/24 03:23:42;;;;;;;1.6;1.3;;;;;;;;;;;;;
2022/04/24 03:26:08;;;;;;;1.4;1.2;;;;;;;;;;;;;
2022/04/24 03:28:33;;;;;;;1.2;1.1;;;;;;;;;;;;;
2022/04/24 03:30:59;;;;;;;1.2;1.1;;;;;;;;;;;;;
2022/04/24 03:33:24;;;;;;;1.2;1.1;;;;;;;;;;;;;
2022/04/24 03:35:50;;;;;;;2.2;1.3;;;;;;;;;;;;;
2022/04/24 03:38:15;;;;;;;1.4;1.1;;;;;;;;;;;;;
2022/04/24 03:40:41;;;;;;;1.7;1.2;;;;;;;;;;;;;
2022/04/24 03:43:06;;;;;;;1.5;1.2;;;;;;;;;;;;;
2022/04/24 03:45:33;;;;;;;1.3;1.2;;;;;;;;;;;;;
2022/04/24 03:47:58;;;;;;;4.1;1.2;;;;;;;;;;;;;
2022/04/24 03:50:24;;;;;;;1.2;1.1;;;;;;;;;;;;;
2022/04/24 03:52:49;;;;;;;1.4;1.2;;;;;;;;;;;;;
2022/04/24 03:55:14;;;;;;;2.2;1.2;;;;;;;;;;;;;
2022/04/24 03:57:39;;;;;;;1.3;1.2;;;;;;;;;;;;;
2022/04/24 04:00:08;;;;;;;1.7;1.4;;;;;;;;;;;;;
2022/04/24 04:02:41;;;;;;;1.9;1.4;;;;;;;8.08;77.06348;918.7924;;;;
2022/04/24 04:11:23;;;;;;;1.5;1.3;;;;;;;7.94;77.59375;918.9928;;;;
2022/04/24 04:14:29;;;;;;;2.1;1.1;;;;;;;8.02;76.98242;918.9558;;;;
2022/04/24 04:17:00;;;;;;;1.9;1;;;;;;;8.09;76.51855;919.0911;;;;
2022/04/24 04:24:36;;;;;;;1;0.5;;;;;;;8.4;63.71289;919.0988;;;;
2022/04/24 04:27:01;;;;;;;0.9;0.9;;;;;;;8.37;70.02539;919.2197;;;;
2022/04/24 04:29:26;;;;;;;1.5;0.8;;;;;;;8.38;70.76465;919.2687;;;;
2022/04/24 04:31:55;;;;;;;1.4;0.9;;;;;;;8.43;70.80762;919.2303;;;;
2022/04/24 04:34:20;;;;;;;1.7;1;;;;;;;8.51;70.52734;919.245;;;;
2022/04/24 04:36:50;;;;;;;1.7;1.2;;;;;;;8.49;71.375;919.2399;;;;
2022/04/24 04:39:20;;;;;;;2.3;1.5;;;;;;;8.49;71.60059;919.2605;;;;
2022/04/24 04:41:47;;;;;;;2.6;1.8;;;;;;;8.45;72.03809;919.3689;;;;
2022/04/24 04:44:12;;;;;;;3.3;2.2;;;;;;;8.57;71.6377;919.3395;;;;
2022/04/24 04:46:43;;;;;;;3.4;2.3;;;;;;;8.69;71.76074;919.2921;;;;
2022/04/24 04:49:08;;;;;;;5.1;3.8;;;;;;;8.81;71.88086;919.399;;;;
2022/04/24 04:51:39;;;;;;;4.7;3.2;;;;;;;8.73;72.03906;919.4025;;;;
2022/04/24 04:54:45;;;;;;;3.4;2.7;;;;;;;8.62;72.6582;919.4286;;;;
2022/04/24 04:57:16;;;;;;;2.6;2.3;;;;;;;8.78;72.26465;919.493;;;;
2022/04/24 04:59:48;;;;;;;4.1;2.8;;;;;;;8.9;72.1709;919.6248;;;;
2022/04/24 05:02:20;;;;;;;4.2;2.9;;;;;;;9;71.51758;919.5861;;;;
2022/04/24 05:04:51;;;;;;;4.5;2.8;;;;;;;9.02;72.80566;919.5845;;;;
2022/04/24 05:07:17;;;;;;;3.5;2.4;;;;;;;9.09;71.87207;919.6636;;;;
2022/04/24 05:09:47;;;;;;;3.9;2.6;;;;;;;9.14;72.25684;919.6429;;;;
2022/04/24 05:12:19;;;;;;;3.8;2.2;;;;;;;9.16;72.2373;919.6942;;;;
2022/04/24 05:14:46;;;;;;;2.8;1.8;;;;;;;9.13;71.16309;919.6733;;;;
2022/04/24 05:17:15;;;;;;;3;2;;;;;;;8.73;72.58496;919.7523;;;;
2022/04/24 05:20:04;;;;;;;2.6;1.4;;;;;;;8.77;72.10352;919.7509;;;;
2022/04/24 05:22:29;;;;;;;1.7;1.4;;;;;;;8.78;72.63965;919.7667;;;;
2022/04/24 05:24:58;;;;;;;2.6;1.9;;;;;;;9.04;72.2627;919.7882;;;;
2022/04/24 05:27:23;;;;;;;3.3;2;;;;;;;9.16;71.03027;919.807;;;;
2022/04/24 05:29:52;;;;;;;4;2.2;;;;;;;9.01;72.08594;919.8542;;;;
2022/04/24 05:32:17;;;;;;;2.7;1.5;;;;;;;8.89;71.84863;919.8655;;;;
2022/04/24 05:34:45;;;;;;;4.7;1.8;;;;;;;9.17;71.19043;919.8571;;;;
2022/04/24 05:37:13;;;;;;;2.5;1.6;;;;;;;9.53;71.38965;919.9446;;;;
2022/04/24 05:39:40;;;;;;;2.2;2;;;;;;;9.84;70.26563;919.9606;;;;
2022/04/24 05:42:09;;;;;;;7.3;2.4;;;;;;;9.84;68.7373;919.9409;;;;
2022/04/24 05:44:41;;;;;;;3.6;1.3;;;;;;;9.76;68.55469;919.9418;;;;
2022/04/24 05:47:06;;;;;;;3.3;1.4;;;;;;;10;68.10156;919.9983;;;;
2022/04/24 05:49:37;;;;;;;2.4;1.5;;;;;;;10.38;67.7959;920.097;;;;
2022/04/24 05:52:08;;;;;;;4.7;1.4;;;;;;;10.8;67.62109;920.0581;;;;
2022/04/24 05:54:34;;;;;;;3.6;2;;;;;;;11.04;66.07031;920.0584;;;;
2022/04/24 05:57:01;;;;;;;2.9;1.9;;;;;;;11.23;67.18457;920.0098;;;;
2022/04/24 05:59:28;;;;;;;5.4;2.5;;;;;;;11.35;66.24316;919.9617;;;;
2022/04/24 06:01:57;;;;;;;4.9;2.4;;;;;;;11.41;66.79102;919.9142;;;;
2022/04/24 06:04:27;;;;;;;5.3;2.5;;;;;;;11.43;67.1709;919.8851;;;;
2022/04/24 06:06:52;;;;;;;3.4;2.4;;;;;;;11.76;66.44434;919.8702;;;;
2022/04/24 06:09:23;;;;;;;4.1;2.5;;;;;;;11.87;66.35742;919.8265;;;;
2022/04/24 06:11:48;;;;;;;2.9;1.7;;;;;;;12.14;66.70898;919.8408;;;;
2022/04/24 06:14:16;;;;;;;2.3;1.8;;;;;;;12.31;66.26465;919.8475;;;;
2022/04/24 06:16:44;;;;;;;3.4;2.3;;;;;;;12.67;64.79395;919.8749;;;;
2022/04/24 06:19:09;;;;;;;3.6;2.3;;;;;;;12.94;64.64941;919.8275;;;;
2022/04/24 06:21:38;;;;;;;6.3;4.3;;;;;;;13.09;64.20117;919.8362;;;;
2022/04/24 06:24:03;;;;;;;6;5;;;;;;;13.78;61.79492;919.7942;;;;
2022/04/24 06:26:33;;;;;;;7.2;6.2;;;;;;;13.75;61.70996;919.8071;;;;
2022/04/24 06:28:58;;;;;;;7.5;6.5;;;;;;;14.41;60.41113;919.8448;;;;
2022/04/24 06:31:26;;;;;;;9.5;7;;;;;;;14.85;59.34082;919.7422;;;;
2022/04/24 06:33:52;;;;;;;10.3;8.5;;;;;;;15.03;59.42285;919.8064;;;;
2022/04/24 06:36:23;;;;;;;12.6;8.9;;;;;;;15.21;60.10547;919.8365;;;;
2022/04/24 06:38:54;;;;;;;11.3;9.1;;;;;;;15.53;59.14453;919.8601;;;;
2022/04/24 06:41:24;;;;;;;11.2;8.6;;;;;;;15.26;59.31543;919.8397;;;;
2022/04/24 06:43:50;;;;;;;11.3;8.3;;;;;;;15.62;58.31445;919.8264;;;;
2022/04/24 06:46:15;;;;;;;9.2;7.5;;;;;;;15.57;57.75293;919.892;;;;
2022/04/24 06:48:40;;;;;;;9.3;7.6;;;;;;;16.8;53.74512;919.8794;;;;
2022/04/24 06:51:13;;;;;;;9.4;7;;;;;;;17.75;50.95898;919.8585;;;;
2022/04/24 06:53:44;;;;;;;11.3;7;;;;;;;18.18;49.82422;919.8929;;;;
2022/04/24 06:56:09;;;;;;;9.8;7.5;;;;;;;18.68;47.86914;919.8472;;;;
2022/04/24 06:58:34;;;;;;;9.2;6.8;;;;;;;18.18;48.96484;919.9236;;;;
2022/04/24 07:01:00;;;;;;;11.3;8.3;;;;;;;17.91;50.8623;919.9423;;;;
2022/04/24 07:03:35;;;;;;;10.9;8.4;;;;;;;17.77;51.36719;920.0284;;;;
2022/04/24 07:06:04;;;;;;;11.7;8.8;;;;;;;17.05;52.84863;920.0715;;;;
2022/04/24 07:08:29;;;;;;;10.3;8.7;;;;;;;16.81;53.13184;920.1789;;;;
2022/04/24 07:11:01;;;;;;;11.2;8.5;;;;;;;16.39;54.79492;920.1958;;;;
2022/04/24 07:13:36;;;;;;;10.6;8.5;;;;;;;16.49;54.1709;920.1943;;;;
2022/04/24 07:15:59;;;;;;;12.1;9.3;;;;;;;16.19;55.24316;920.2425;;;;
2022/04/24 07:18:28;;;;;;;10.4;9.1;;;;;;;15.79;56.69629;920.3629;;;;
2022/04/24 07:20:55;;;;;;;12.2;9.6;;;;;;;15.54;57.93359;920.4219;;;;
2022/04/24 07:23:17;;;;;;;12.2;10;;;;;;;15.64;57.75098;920.4314;;;;
2022/04/24 07:25:45;;;;;;;13.3;10.1;;;;;;;15.66;57.89063;920.4492;;;;
2022/04/24 07:28:10;;;;;;;10.7;8.9;;;;;;;15.63;58.04883;920.4375;;;;
2022/04/24 07:30:39;;;;;;;11.7;8.9;;;;;;;15.63;57.8418;920.5513;;;;
2022/04/24 07:33:03;;;;;;;11.2;8.8;;;;;;;15.41;59.30176;920.5813;;;;
2022/04/24 07:35:34;;;;;;;10.7;8.7;;;;;;;15.45;59.53711;920.5641;;;;
2022/04/24 07:37:59;;;;;;;9.1;7.5;;;;;;;15.56;58.80176;920.6203;;;;
2022/04/24 07:40:29;;;;;;;9.6;7.3;;;;;;;15.66;58.05273;920.5984;;;;
2022/04/24 07:42:58;;;;;;;11.1;6.3;;;;;;;16.12;56.66797;920.6492;;;;
2022/04/24 07:45:31;;;;;;;6.2;5.6;;;;;;;16.4;55.25879;920.6089;;;;
2022/04/24 07:48:00;;;;;;;6.2;5.2;;;;;;;16.68;54.81934;920.6344;;;;
2022/04/24 07:50:25;;;;;;;6.4;4.9;;;;;;;17.18;52.14551;920.5822;;;;
2022/04/24 07:52:53;;;;;;;5;4.4;;;;;;;17.69;50.74316;920.6344;;;;
2022/04/24 07:55:19;;;;;;;5.6;4.3;;;;;;;17.62;51.86133;920.6691;;;;
2022/04/24 07:57:49;;;;;;;4.3;3.9;;;;;;;18.3;49.54688;920.6973;;;;
2022/04/24 08:00:21;;;;;;;4.4;3.4;;;;;;;18.14;49.67969;920.6742;;;;
2022/04/24 08:02:46;;;;;;;2.9;2.6;;;;;;;18.54;47.19043;920.63;;;;
2022/04/24 08:05:16;;;;;;;3.3;2.3;;;;;;;18.3;48.34961;920.7271;;;;
2022/04/24 08:07:49;;;;;;;3.4;2.2;;;;;;;18.97;46.32813;920.75;;;;
2022/04/24 08:10:19;;;;;;;3.9;2.5;;;;;;;19.2;45.02441;920.7838;;;;
2022/04/24 08:12:44;;;;;;;3.7;2.1;;;;;;;18.73;46.12891;920.7092;;;;
2022/04/24 08:15:15;;;;;;;3;2.2;;;;;;;18.32;46.71289;920.7883;;;;
2022/04/24 08:17:46;;;;;;;2.7;2.2;;;;;;;17.25;49.29004;920.7739;;;;
2022/04/24 08:20:17;;;;;;;2.8;2.1;;;;;;;16.38;51.30957;920.7562;;;;
2022/04/24 08:22:46;;;;;;;2.1;1.9;;;;;;;16.15;51.65332;920.7835;;;;
2022/04/24 08:25:11;;;;;;;1.9;1.5;;;;;;;16.31;50.88574;920.759;;;;
2022/04/24 08:27:40;;;;;;;1.7;1;;;;;;;16.85;49.28027;920.7417;;;;
2022/04/24 08:30:15;;;;;;;1.2;1.1;;;;;;;16.99;49.93359;920.7813;;;;
2022/04/24 08:32:40;;;;;;;1.5;1.2;;;;;;;16.32;50.75781;920.8239;;;;
2022/04/24 08:35:05;;;;;;;1.3;1.2;;;;;;;16.41;50.31836;920.8295;;;;
2022/04/24 08:37:35;;;;;;;1.4;1.1;;;;;;;17.12;48.52246;920.8516;;;;
2022/04/24 08:40:00;;;;;;;0.9;0.9;;;;;;;17.4;47.96191;920.7292;;;;
2022/04/24 08:42:32;;;;;;;1.9;1;;;;;;;18.44;44.74902;920.7497;;;;
2022/04/24 08:44:59;;;;;;;1.2;1.1;;;;;;;17.78;46.57422;920.8016;;;;
2022/04/24 08:47:24;;;;;;;1.3;1.2;;;;;;;18.54;46.22461;920.8262;;;;
2022/04/24 08:49:49;;;;;;;1.3;1;;;;;;;18.84;42.95117;920.8152;;;;
2022/04/24 08:52:19;;;;;;;3.3;1.4;;;;;;;18.81;42.28613;920.7986;;;;
2022/04/24 08:54:47;;;;;;;1.3;1.2;;;;;;;18.6;43.69531;920.7651;;;;
2022/04/24 08:57:12;;;;;;;1.1;1;;;;;;;18.43;44.03906;920.8225;;;;
2022/04/24 08:59:39;;;;;;;3.8;1.5;;;;;;;17.76;44.54102;920.7905;;;;
2022/04/24 09:02:04;;;;;;;2.6;1.3;;;;;;;17.14;45.25391;920.76;;;;
2022/04/24 09:04:29;;;;;;;1.6;1.5;;;;;;;16.58;45.15137;920.7697;;;;
2022/04/24 09:06:58;;;;;;;1.4;1.3;;;;;;;15.9;47.24219;920.8439;;;;
2022/04/24 09:09:28;;;;;;;1.1;1;;;;;;;16;47.4502;920.8712;;;;
2022/04/24 09:11:53;;;;;;;1.3;1.1;;;;;;;16.09;48.41992;920.883;;;;
2022/04/24 09:14:23;;;;;;;1.7;1.1;;;;;;;16.3;47.05469;920.8148;;;;
2022/04/24 09:16:47;;;;;;;1.4;1.3;;;;;;;15.91;47.90234;920.8498;;;;
2022/04/24 09:19:15;;;;;;;1.7;1.4;;;;;;;15.59;48.56055;920.8406;;;;
2022/04/24 09:21:46;;;;;;;1.2;1.1;;;;;;;15.37;49.62207;920.8692;;;;
2022/04/24 09:24:11;;;;;;;1.2;1.1;;;;;;;15.18;48.51563;920.822;;;;
2022/04/24 09:26:41;;;;;;;2.5;1.5;;;;;;;15.08;49.28906;920.7911;;;;
2022/04/24 09:29:06;;;;;;;1.9;1.3;;;;;;;15.01;49.31543;920.9113;;;;
2022/04/24 09:31:31;;;;;;;1.1;0.9;;;;;;;14.98;49.45117;920.8128;;;;
2022/04/24 09:33:59;;;;;;;1.1;1;;;;;;;15.1;49.26758;920.9147;;;;
2022/04/24 09:36:24;;;;;;;1.5;1.2;;;;;;;15.23;49.59375;920.9377;;;;
2022/04/24 09:38:52;;;;;;;1.2;1.1;;;;;;;15.1;49.2334;920.9187;;;;
2022/04/24 09:41:18;;;;;;;1.2;1.1;;;;;;;15.04;49.75684;920.9625;;;;
2022/04/24 09:43:47;;;;;;;1.1;1;;;;;;;15.01;50.60742;920.921;;;;
2022/04/24 09:46:12;;;;;;;1.1;1;;;;;;;15.2;50.90527;920.993;;;;
2022/04/24 09:48:37;;;;;;;2.2;1;;;;;;;15.54;50.47266;921.021;;;;
2022/04/24 09:51:02;;;;;;;1.5;0.9;;;;;;;15.92;49.84473;921.0059;;;;
2022/04/24 09:53:27;;;;;;;1.1;1.1;;;;;;;16.64;49.13965;920.9839;;;;
2022/04/24 09:55:53;;;;;;;1.5;0.7;;;;;;;16.7;47.1084;921.0227;;;;
2022/04/24 09:58:18;;;;;;;1.9;0.8;;;;;;;16.5;46.84473;921.0921;;;;
2022/04/24 10:00:48;;;;;;;0.9;0.8;;;;;;;16.65;47.02246;921.0647;;;;
2022/04/24 10:03:14;;;;;;;1.4;0.9;;;;;;;17.26;45.91699;921.055;;;;
2022/04/24 10:05:42;;;;;;;1.6;1;;;;;;;17.38;45.89453;921.0821;;;;
2022/04/24 10:08:10;;;;;;;0.6;0.5;;;;;;;17.18;44.03027;921.1321;;;;
2022/04/24 10:10:35;;;;;;;2.3;0.8;;;;;;;16.96;44.8418;921.1559;;;;
2022/04/24 10:13:05;;;;;;;0.6;0.6;;;;;;;16.69;44.78027;921.1145;;;;
2022/04/24 10:15:46;;;;;;;0.8;0.5;;;;;;;16.51;45.13184;921.2726;;;;
2022/04/24 10:18:13;;;;;;;0.5;0.4;;;;;;;16.17;44.99219;921.3331;;;;
2022/04/24 10:20:41;;;;;;;0.8;0.4;;;;;;;16.35;45.84473;921.3011;;;;
2022/04/24 10:23:09;;;;;;;0.3;0.3;;;;;;;16.55;44.98535;921.3416;;;;
2022/04/24 10:25:37;;;;;;;0.4;0.3;;;;;;;17.09;42.8623;921.3242;;;;
2022/04/24 10:27:58;;;;;;;1.2;0.6;;;;;;;17.26;44.6416;921.3833;;;;
2022/04/24 10:30:24;;;;;;;0.5;0.5;;;;;;;17.38;44.7002;921.4551;;;;
2022/04/24 10:32:48;;;;;;;0.3;0.3;;;;;;;17.7;42.51465;921.4196;;;;
2022/04/24 10:35:14;;;;;;;0.4;0.4;;;;;;;17.56;43.97559;921.4099;;;;
2022/04/24 10:37:39;;;;;;;0.4;0.4;;;;;;;17.62;45.01465;921.4724;;;;
2022/04/24 10:40:04;;;;;;;4.7;0.5;;;;;;;18.07;42.0752;921.44;;;;
2022/04/24 10:42:29;;;;;;;0.2;0.2;;;;;;;19.1;40.6123;921.4351;;;;
2022/04/24 10:44:59;;;;;;;2.2;0.3;;;;;;;18.82;40.45996;921.4565;;;;
2022/04/24 10:47:24;;;;;;;0.5;0.5;;;;;;;18.8;40.45801;921.4523;;;;
2022/04/24 10:49:57;;;;;;;0.5;0.3;;;;;;;19.14;41.08203;921.498;;;;
2022/04/24 10:52:23;;;;;;;0.9;0.3;;;;;;;19.24;40.7666;921.557;;;;
2022/04/24 10:54:48;;;;;;;1.1;0.4;;;;;;;20.17;39.47461;921.5825;;;;
2022/04/24 10:57:18;;;;;;;0.7;0.2;;;;;;;20.61;39.95898;921.5712;;;;
2022/04/24 10:59:42;;;;;;;0.3;0.3;;;;;;;21.37;37.66211;921.4476;;;;
2022/04/24 11:02:07;;;;;;;1.3;0.3;;;;;;;19.7;41.72949;921.5011;;;;
2022/04/24 11:04:32;;;;;;;1.6;0.3;;;;;;;18.24;42.72949;921.4947;;;;
2022/04/24 11:07:02;;;;;;;1;0.5;;;;;;;17.38;44.21289;921.6122;;;;
2022/04/24 11:09:28;;;;;;;0.2;0.2;;;;;;;16.73;44.81934;921.7485;;;;
2022/04/24 11:11:54;;;;;;;0.5;0.4;;;;;;;16.38;48.46289;921.7049;;;;
2022/04/24 11:14:23;;;;;;;0.5;0.3;;;;;;;15.76;49.07617;921.8535;;;;
2022/04/24 11:16:48;;;;;;;0.9;0.6;;;;;;;16;49.53027;921.8787;;;;
2022/04/24 11:19:15;;;;;;;0.2;0.2;;;;;;;15.83;49.7666;921.9589;;;;
2022/04/24 11:21:40;;;;;;;0.7;0.2;;;;;;;15.92;48.79395;921.9562;;;;
2022/04/24 11:24:05;;;;;;;1.6;0.4;;;;;;;15.68;51.55176;921.9796;;;;
2022/04/24 11:26:34;;;;;;;1.1;0.3;;;;;;;15.52;51.32422;922.0222;;;;
2022/04/24 11:28:59;;;;;;;4.4;0.6;;;;;;;15.41;50.86133;922.0747;;;;
2022/04/24 11:31:29;;;;;;;1.3;0.2;;;;;;;15.13;50.9668;922.0817;;;;
2022/04/24 11:33:54;;;;;;;0.9;0.5;;;;;;;14.82;52.72949;922.0454;;;;
2022/04/24 11:36:23;;;;;;;1.7;0.4;;;;;;;14.64;53.45801;922.1406;;;;
2022/04/24 11:38:48;;;;;;;0.3;0.3;;;;;;;14.43;54.96484;922.162;;;;
2022/04/24 11:41:18;;;;;;;0.9;0.3;;;;;;;14.44;56.60059;922.2108;;;;
2022/04/24 11:43:43;;;;;;;0.3;0.3;;;;;;;14.62;57.3623;922.2125;;;;
2022/04/24 11:51:06;;;;;;;0.4;0.4;;;;;;;14.26;60.0791;922.1923;;;;
2022/04/24 11:53:33;;;;;;;0.8;0.4;;;;;;;14.28;59.8623;922.1127;;;;
2022/04/24 11:56:04;;;;;;;0.4;0.4;;;;;;;14.45;58.35352;922.075;;;;
2022/04/24 11:58:23;;;;;;;0.2;0.2;;;;;;;14.53;56.72852;922.1533;;;;
2022/04/24 12:00:51;;;;;;;0.3;0.3;;;;;;;14.81;57.00684;922.1791;;;;
2022/04/24 12:03:17;;;;;;;0.1;0.1;;;;;;;15.47;55.64941;922.1618;;;;
2022/04/24 12:05:46;;;;;;;0.8;0.4;;;;;;;16.56;51.80566;922.1284;;;;
2022/04/24 12:08:20;;;;;;;0.2;0.2;;;;;;;17.27;49.33789;922.1574;;;;
2022/04/24 12:10:45;;;;;;;0.3;0.3;;;;;;;17.4;47.9834;922.1883;;;;
2022/04/24 12:13:10;;;;;;;0.9;0.4;;;;;;;17.29;48.64453;922.2274;;;;
2022/04/24 12:15:39;;;;;;;1.2;0.3;;;;;;;16.77;49.67676;922.2734;;;;
2022/04/24 12:18:03;;;;;;;0.9;0.4;;;;;;;16.43;50.1709;922.1713;;;;
2022/04/24 12:20:28;;;;;;;0.7;0.3;;;;;;;16.06;51.20313;922.1055;;;;
2022/04/24 12:22:58;;;;;;;0.3;0.3;;;;;;;15.59;52.70703;922.085;;;;
2022/04/24 12:25:24;;;;;;;0.3;0.3;;;;;;;15.7;53.86523;922.0765;;;;
2022/04/24 12:27:51;;;;;;;0.3;0.3;;;;;;;16.11;51.86816;922.0609;;;;
2022/04/24 12:30:17;;;;;;;1.2;0.2;;;;;;;16.43;51.14258;921.9866;;;;
2022/04/24 12:32:50;;;;;;;0.2;0.2;;;;;;;16.12;51.59082;922.0703;;;;
2022/04/24 12:35:24;;;;;;;0.4;0.4;;;;;;;15.88;51.27441;922.1102;;;;
2022/04/24 12:37:52;;;;;;;0.8;0.2;;;;;;;16.1;50.81348;922.0206;;;;
2022/04/24 12:40:26;;;;;;;1;0.4;;;;;;;16.31;50.46875;922.0715;;;;
2022/04/24 12:42:55;;;;;;;0.3;0.3;;;;;;;16.6;47.48047;922.0627;;;;
2022/04/24 12:45:26;;;;;;;0.2;0.2;;;;;;;16.45;49.02637;922.0847;;;;
2022/04/24 12:47:51;;;;;;;0.2;0.2;;;;;;;16.12;50.5166;922.0829;;;;
2022/04/24 12:50:17;;;;;;;0.8;0.2;;;;;;;16.41;49.9248;922.0861;;;;
2022/04/24 12:52:48;;;;;;;0.3;0.3;;;;;;;16.15;50.27637;922.058;;;;
2022/04/24 12:55:14;;;;;;;0.4;0.3;;;;;;;15.97;50.99609;922.074;;;;
2022/04/24 12:57:47;;;;;;;0.3;0.3;;;;;;;15.92;51.19824;922.1103;;;;
2022/04/24 13:00:17;;;;;;;0.3;0.3;;;;;;;15.62;52.03027;922.1492;;;;
2022/04/24 13:02:47;;;;;;;0.4;0.3;;;;;;;15.45;53.41895;922.1738;;;;
2022/04/24 13:05:12;;;;;;;0.4;0.3;;;;;;;15.59;52.19824;922.2031;;;;
2022/04/24 13:07:46;;;;;;;0.2;0.2;;;;;;;15.76;50.9834;922.1039;;;;
2022/04/24 13:10:15;;;;;;;0.4;0.3;;;;;;;15.8;50.81543;921.9797;;;;
2022/04/24 13:12:45;;;;;;;0.3;0.3;;;;;;;16.1;50.29492;921.9642;;;;
2022/04/24 13:15:11;;;;;;;0.9;0.4;;;;;;;16.12;51.39453;921.9451;;;;
2022/04/24 13:18:14;;;;;;;0.2;0.2;;;;;;;16.51;49.75195;921.9489;;;;
2022/04/24 13:20:06;;;;;;;0.2;0.2;;;;;;;16.81;49.01953;921.8742;;;;
2022/04/24 13:22:36;;;;;;;0.6;0.4;;;;;;;17.01;48.81055;921.8999;;;;
2022/04/24 13:25:01;;;;;;;0.5;0.3;;;;;;;16.85;50.9834;921.9425;;;;
2022/04/24 13:27:26;;;;;;;0.4;0.3;;;;;;;16.87;49.40918;922.0039;;;;
2022/04/24 13:29:55;;;;;;;0.6;0.3;;;;;;;16.97;49.12988;922.0263;;;;
2022/04/24 13:32:21;;;;;;;0.4;0.4;;;;;;;16.97;49.1416;922.0472;;;;
2022/04/24 13:34:50;;;;;;;0.5;0.3;;;;;;;16.84;48.12109;922.0966;;;;
2022/04/24 13:39:45;;;;;;;1.2;0.4;;;;;;;16.31;49.79688;922.2282;;;;
2022/04/24 13:42:13;;;;;;;0.5;0.3;;;;;;;15.75;49.97656;922.1316;;;;
2022/04/24 13:44:35;;;;;;;0.2;0.2;;;;;;;15.29;51.5752;922.1271;;;;
2022/04/24 13:47:06;;;;;;;0.3;0.3;;;;;;;14.8;54.60742;922.1978;;;;
2022/04/24 13:49:35;;;;;;;0.4;0.3;;;;;;;14.71;54.90723;922.2994;;;;
2022/04/24 13:52:01;;;;;;;0.8;0.6;;;;;;;14.55;55.58984;922.313;;;;
2022/04/24 13:54:30;;;;;;;0.4;0.4;;;;;;;14.17;57.4873;922.2126;;;;
2022/04/24 13:56:56;;;;;;;0.5;0.5;;;;;;;13.93;58.90527;922.3074;;;;
2022/04/24 13:59:23;;;;;;;0.6;0.6;;;;;;;13.96;59.53027;922.3354;;;;
2022/04/24 14:01:49;;;;;;;0.4;0.4;;;;;;;13.97;60.0166;922.3663;;;;
2022/04/24 14:04:19;;;;;;;0.4;0.4;;;;;;;13.98;59.99316;922.3892;;;;
2022/04/24 14:06:44;;;;;;;0.7;0.4;;;;;;;14.08;60.69922;922.3704;;;;
2022/04/24 14:09:14;;;;;;;1;0.4;;;;;;;14.05;58.42578;922.3625;;;;
2022/04/24 14:11:39;;;;;;;0.6;0.5;;;;;;;14.1;57.47754;922.4189;;;;
2022/04/24 14:14:06;;;;;;;0.3;0.3;;;;;;;14.15;59.97168;922.4213;;;;
2022/04/24 14:16:31;;;;;;;0.2;0.2;;;;;;;13.98;60.53516;922.3923;;;;
2022/04/24 14:18:56;;;;;;;0.4;0.4;;;;;;;13.88;60.07324;922.4481;;;;
2022/04/24 14:21:24;;;;;;;1;0.2;;;;;;;13.78;61.56445;922.5555;;;;
2022/04/24 14:23:49;;;;;;;0.5;0.3;;;;;;;13.6;62.96484;922.6002;;;;
2022/04/24 14:26:18;;;;;;;0.5;0.5;;;;;;;13.22;62.03711;922.7188;;;;
2022/04/24 14:28:43;;;;;;;0.7;0.7;;;;;;;12.92;63.03906;922.8069;;;;
2022/04/24 14:31:13;;;;;;;1.9;1.6;;;;;;;12.48;65.50977;922.8391;;;;
2022/04/24 14:33:43;;;;;;;0.7;0.7;;;;;;;12.31;67.89258;922.947;;;;
2022/04/24 14:36:09;;;;;;;0.4;0.4;;;;;;;12.01;69.50781;922.9517;;;;
2022/04/24 14:38:33;;;;;;;1.2;0.4;;;;;;;11.84;71.63281;923.0242;;;;
2022/04/24 14:41:01;;;;;;;0.9;0.7;;;;;;;11.84;72.88086;923.1255;;;;
2022/04/24 14:43:26;;;;;;;2.9;1.1;;;;;;;11.86;73.90332;923.1069;;;;
2022/04/24 14:55:49;;;;;;;0.6;0.6;;;;;;;12.02;75.07715;923.1884;;;;
2022/04/24 14:58:01;;;;;;;1.4;0.8;;;;;;;12.07;75.63477;923.2081;;;;
2022/04/24 15:00:29;;;;;;;0.6;0.5;;;;;;;12.16;76.14355;923.2382;;;;
2022/04/24 15:02:54;;;;;;;1.5;0.7;;;;;;;12.25;75.7334;923.3038;;;;
2022/04/24 15:05:26;;;;;;;1.3;0.7;;;;;;;12.22;76.23438;923.258;;;;
2022/04/24 15:07:54;;;;;;;0.9;0.8;;;;;;;12.18;75.75879;923.3127;;;;
2022/04/24 15:10:27;;;;;;;1.4;0.7;;;;;;;12.16;76.33789;923.3011;;;;
2022/04/24 15:12:55;;;;;;;1.9;0.9;;;;;;;12.3;76.3623;923.4207;;;;
2022/04/24 15:15:21;;;;;;;0.8;0.8;;;;;;;12.27;75.89844;923.3608;;;;
2022/04/24 15:17:52;;;;;;;1.2;1;;;;;;;12.14;76.63281;923.4899;;;;
2022/04/24 15:20:18;;;;;;;1.4;1.2;;;;;;;12.13;77.05664;923.5467;;;;
2022/04/24 15:22:50;;;;;;;1.2;0.7;;;;;;;11.92;76.80078;923.5849;;;;
2022/04/24 15:25:20;;;;;;;0.7;0.7;;;;;;;11.59;76.99512;923.5703;;;;
2022/04/24 15:27:49;;;;;;;1.4;0.5;;;;;;;11.2;78.3291;923.6229;;;;
2022/04/24 15:30:15;;;;;;;0.4;0.4;;;;;;;11.12;78.07617;923.68;;;;
2022/04/24 15:32:44;;;;;;;0.7;0.5;;;;;;;10.72;79.59277;923.7828;;;;
2022/04/24 15:35:17;;;;;;;1;0.8;;;;;;;10.07;82.98535;923.8683;;;;
2022/04/24 15:37:49;;;;;;;0.6;0.5;;;;;;;10.5;82.03027;923.9814;;;;
2022/04/24 15:40:19;;;;;;;2;1.2;;;;;;;10.56;81.28711;923.9949;;;;
2022/04/24 15:42:44;;;;;;;0.6;0.6;;;;;;;10.59;81.53125;924.0144;;;;
2022/04/24 15:45:17;;;;;;;0.4;0.4;;;;;;;10.69;80.14551;924.1096;;;;
2022/04/24 15:47:44;;;;;;;0.7;0.7;;;;;;;10.46;82.13379;924.1761;;;;
2022/04/24 15:50:07;;;;;;;1;0.9;;;;;;;10.44;83.75293;924.2385;;;;
2022/04/24 15:52:40;;;;;;;2.1;1;;;;;;;10.52;83.92676;924.2803;;;;
2022/04/24 15:55:09;;;;;;;2.6;1.2;;;;;;;10.61;83.83203;924.394;;;;
2022/04/24 15:57:33;;;;;;;5.3;3.5;;;;;;;10.56;82.71387;924.544;;;;
2022/04/24 16:00:01;;;;;;;6.3;4.6;;;;;;;10.44;84.2207;924.5558;;;;
2022/04/24 16:02:26;;;;;;;1;0.6;;;;;;;;;;;;;
2022/04/24 16:04:51;;;;;;;1.7;1.3;;;;;;;;;;;;;
2022/04/24 16:07:17;;;;;;;1.6;1.1;;;;;;;;;;;;;
2022/04/24 16:09:42;;;;;;;2.3;1;;;;;;;;;;;;;
2022/04/24 16:12:07;;;;;;;2.4;1.2;;;;;;;;;;;;;
2022/04/24 16:14:33;;;;;;;2;1;;;;;;;;;;;;;
2022/04/24 16:16:58;;;;;;;1.2;0.7;;;;;;;;;;;;;
2022/04/24 16:19:24;;;;;;;2.5;1.7;;;;;;;;;;;;;